Time;durP1;ratioP1;P1;durP2;ratioP2;P2;SDS_P1;SDS_P2;PMS_P1;PMS_P2;Temp;Humidity;BMP_temperature;BMP_pressure;BME280_temperature;BME280_humidity;BME280_pressure;Samples;Min_cycle;Max_cycle;Signal;HPM_P1;HPM_P2
2022/05/21 00:01:49;;;;;;;10.65;2.05;;;18.10;71.90;;;;;;4107531;28;20045;-48
2022/05/21 00:03:51;;;;;;;7.25;1.30;;;18.10;72.00;;;;;;4116195;28;20080;-45
2022/05/21 00:05:54;;;;;;;4.55;1.20;;;18.10;72.50;;;;;;4108558;28;20077;-47
2022/05/21 00:07:56;;;;;;;8.02;1.30;;;18.20;71.90;;;;;;4106168;28;20052;-49
2022/05/21 00:09:58;;;;;;;5.38;1.38;;;18.20;71.90;;;;;;4118211;28;20045;-49
2022/05/21 00:12:01;;;;;;;4.13;1.00;;;18.20;71.70;;;;;;4109591;28;20053;-44
2022/05/21 00:14:03;;;;;;;11.02;1.38;;;18.20;71.70;;;;;;4109479;28;20046;-45
2022/05/21 00:16:05;;;;;;;5.05;1.10;;;18.20;71.70;;;;;;4112512;28;20409;-45
2022/05/21 00:18:08;;;;;;;3.80;1.20;;;18.20;71.70;;;;;;4115393;28;20049;-45
2022/05/21 00:20:47;;;;;;;3.38;1.02;;;18.20;71.60;;;;;;4109234;28;20321;-44
2022/05/21 00:22:32;;;;;;;3.55;1.00;;;18.30;71.70;;;;;;4114557;28;21093;-47
2022/05/21 00:24:35;;;;;;;4.60;0.80;;;18.30;71.60;;;;;;4110320;28;20123;-52
2022/05/21 00:26:37;;;;;;;8.20;1.55;;;18.30;71.80;;;;;;4108873;28;20065;-44
2022/05/21 00:28:41;;;;;;;9.63;1.38;;;18.30;71.90;;;;;;4116362;28;20099;-45
2022/05/21 00:30:45;;;;;;;5.35;1.25;;;18.30;71.90;;;;;;4111390;28;20053;-46
2022/05/21 00:32:47;;;;;;;4.43;1.63;;;18.30;71.90;;;;;;4088178;28;20053;-44
2022/05/21 00:34:49;;;;;;;8.32;1.38;;;18.40;71.70;;;;;;4108596;28;20049;-44
2022/05/21 00:36:52;;;;;;;7.07;1.27;;;18.40;72.30;;;;;;4111785;28;20057;-49
2022/05/21 00:38:54;;;;;;;6.65;1.23;;;18.40;71.70;;;;;;4107258;28;20591;-45
2022/05/21 00:40:56;;;;;;;5.40;1.17;;;18.40;71.60;;;;;;4106367;28;20053;-45
2022/05/21 00:42:59;;;;;;;4.70;1.02;;;18.40;71.60;;;;;;4114244;28;20081;-46
2022/05/21 00:45:01;;;;;;;6.93;1.65;;;18.40;71.60;;;;;;4109386;28;20049;-45
2022/05/21 00:47:03;;;;;;;6.13;1.20;;;18.40;72.30;;;;;;4109373;28;20580;-56
2022/05/21 00:49:10;;;;;;;8.18;1.20;;;18.40;71.80;;;;;;4115200;28;20053;-57
2022/05/21 00:51:29;;;;;;;7.15;1.45;;;18.40;71.70;;;;;;4135930;28;20044;-55
2022/05/21 00:53:31;;;;;;;4.80;1.20;;;18.50;71.30;;;;;;4144984;28;20041;-56
2022/05/21 00:55:34;;;;;;;5.07;0.98;;;18.50;71.10;;;;;;4120607;28;21016;-56
2022/05/21 00:57:49;;;;;;;5.45;0.90;;;18.50;70.80;;;;;;4152739;28;20496;-54
2022/05/21 00:59:59;;;;;;;14.70;2.15;;;18.50;70.20;;;;;;4151913;28;20042;-47
2022/05/21 01:02:04;;;;;;;13.52;1.98;;;18.50;71.50;;;;;;4107006;28;20053;-53
2022/05/21 01:04:06;;;;;;;7.22;1.75;;;18.50;72.00;;;;;;4105993;28;20191;-50
2022/05/21 01:06:11;;;;;;;16.88;1.63;;;18.50;72.60;;;;;;4112178;28;20050;-55
2022/05/21 01:08:13;;;;;;;3.85;1.27;;;18.60;72.80;;;;;;4101455;28;20523;-54
2022/05/21 01:10:19;;;;;;;5.63;1.43;;;18.60;72.70;;;;;;4105276;28;20481;-55
2022/05/21 01:12:29;;;;;;;10.75;1.52;;;18.60;73.10;;;;;;4106159;28;20480;-53
2022/05/21 01:14:32;;;;;;;15.52;1.77;;;18.60;72.70;;;;;;4106091;28;20149;-50
2022/05/21 01:16:34;;;;;;;5.85;1.15;;;18.60;73.30;;;;;;4112736;28;20329;-55
2022/05/21 01:18:37;;;;;;;7.60;1.27;;;18.60;73.70;;;;;;4104254;28;21339;-58
2022/05/21 01:20:48;;;;;;;3.47;1.57;;;18.60;73.10;;;;;;4102725;28;20045;-58
2022/05/21 01:22:56;;;;;;;3.35;1.25;;;18.60;73.30;;;;;;4103990;28;20046;-52
2022/05/21 01:24:58;;;;;;;10.63;1.98;;;18.60;73.70;;;;;;4107733;28;20045;-55
2022/05/21 01:27:00;;;;;;;3.60;1.50;;;18.60;74.20;;;;;;4113444;28;20571;-51
2022/05/21 01:29:26;;;;;;;5.43;1.50;;;18.70;74.50;;;;;;4104481;28;20053;-52
2022/05/21 01:31:29;;;;;;;6.97;2.17;;;18.70;74.70;;;;;;4114240;28;20521;-57
2022/05/21 01:33:37;;;;;;;4.82;2.10;;;18.70;74.80;;;;;;4109224;28;20049;-55
2022/05/21 01:35:42;;;;;;;10.02;1.67;;;18.80;74.50;;;;;;4105822;28;20075;-54
2022/05/21 01:37:44;;;;;;;8.18;1.70;;;18.80;74.30;;;;;;4104896;28;20167;-55
2022/05/21 01:39:46;;;;;;;5.87;2.03;;;18.90;74.10;;;;;;4111174;28;20637;-53
2022/05/21 01:41:50;;;;;;;5.30;1.50;;;18.90;73.80;;;;;;4108941;28;20724;-51
2022/05/21 01:46:15;;;;;;;4.20;1.65;;;19.00;73.70;;;;;;4106352;28;20095;-55
2022/05/21 01:48:19;;;;;;;4.97;1.70;;;19.00;73.50;;;;;;4104749;28;20115;-58
2022/05/21 01:50:21;;;;;;;7.70;1.75;;;19.00;73.40;;;;;;4107951;28;20058;-55
2022/05/21 01:52:23;;;;;;;8.15;2.10;;;19.00;73.90;;;;;;4114364;28;20214;-53
2022/05/21 01:54:25;;;;;;;4.63;1.85;;;19.00;73.30;;;;;;4125675;28;20074;-56
2022/05/21 01:56:27;;;;;;;6.18;1.80;;;19.00;73.50;;;;;;4103647;28;20089;-55
2022/05/21 01:58:30;;;;;;;6.47;2.22;;;19.00;73.40;;;;;;4108939;28;20080;-56
2022/05/21 02:00:32;;;;;;;5.37;2.47;;;19.00;73.50;;;;;;4111463;28;20057;-57
2022/05/21 02:02:35;;;;;;;7.70;2.45;;;19.00;73.80;;;;;;4097075;28;20088;-52
2022/05/21 02:04:40;;;;;;;5.53;2.30;;;19.00;73.80;;;;;;4106210;28;20184;-52
2022/05/21 02:06:42;;;;;;;6.53;2.47;;;19.00;73.60;;;;;;4106667;28;20547;-56
2022/05/21 02:08:44;;;;;;;6.78;1.90;;;19.10;73.70;;;;;;4107375;28;20049;-56
2022/05/21 02:10:47;;;;;;;4.38;2.30;;;19.10;73.70;;;;;;4104267;28;20054;-53
2022/05/21 02:12:50;;;;;;;7.60;2.55;;;19.10;73.70;;;;;;4098716;28;20574;-57
2022/05/21 02:14:52;;;;;;;8.75;2.70;;;19.00;73.70;;;;;;4114850;28;20068;-56
2022/05/21 02:16:54;;;;;;;6.15;2.40;;;19.10;73.40;;;;;;4105802;28;20168;-54
2022/05/21 02:18:57;;;;;;;6.70;2.33;;;19.10;73.20;;;;;;4105868;28;20452;-57
2022/05/21 02:20:59;;;;;;;4.60;2.05;;;19.10;73.00;;;;;;4111898;28;20069;-57
2022/05/21 02:23:01;;;;;;;6.55;2.50;;;19.10;72.70;;;;;;4104997;28;20064;-57
2022/05/21 02:25:05;;;;;;;5.93;2.17;;;19.10;72.50;;;;;;4105250;28;20056;-56
2022/05/21 02:27:12;;;;;;;5.32;2.05;;;19.10;72.30;;;;;;4110340;28;20049;-55
2022/05/21 02:29:14;;;;;;;4.80;1.83;;;19.10;72.30;;;;;;4110116;28;20280;-56
2022/05/21 02:31:16;;;;;;;6.38;1.83;;;19.10;72.10;;;;;;4101758;28;20089;-58
2022/05/21 02:33:18;;;;;;;4.10;2.00;;;19.10;72.10;;;;;;4102890;28;20607;-57
2022/05/21 02:35:20;;;;;;;7.07;1.80;;;19.10;72.00;;;;;;4109811;28;20100;-58
2022/05/21 02:39:43;;;;;;;2.80;1.63;;;19.10;71.90;;;;;;4117104;28;20526;-58
2022/05/21 02:41:46;;;;;;;4.83;1.90;;;19.10;71.90;;;;;;4106787;28;20713;-58
2022/05/21 02:43:48;;;;;;;3.60;1.50;;;19.10;71.90;;;;;;4105537;28;20212;-58
2022/05/21 02:45:50;;;;;;;4.30;1.50;;;19.10;71.80;;;;;;4112262;28;20050;-58
2022/05/21 02:47:53;;;;;;;2.73;1.33;;;19.10;71.80;;;;;;4112038;28;21120;-57
2022/05/21 02:49:55;;;;;;;4.75;1.65;;;19.10;71.70;;;;;;4111281;28;20889;-58
2022/05/21 02:51:58;;;;;;;2.75;1.52;;;19.10;71.70;;;;;;4112190;28;20939;-58
2022/05/21 02:54:00;;;;;;;3.13;1.45;;;19.10;71.70;;;;;;4117142;28;20060;-58
2022/05/21 02:56:08;;;;;;;3.30;1.40;;;19.10;71.70;;;;;;4109940;28;20053;-58
2022/05/21 02:58:10;;;;;;;3.75;1.50;;;19.10;71.60;;;;;;4111017;28;20502;-57
2022/05/21 03:00:18;;;;;;;2.60;1.25;;;19.00;71.50;;;;;;4113682;28;20401;-58
2022/05/21 03:02:20;;;;;;;3.03;1.17;;;19.10;71.50;;;;;;4116050;28;20057;-58
2022/05/21 03:04:23;;;;;;;2.75;1.30;;;19.10;71.50;;;;;;4129345;28;21563;-58
2022/05/21 03:06:25;;;;;;;3.45;1.05;;;19.10;71.40;;;;;;4110644;28;20450;-58
2022/05/21 03:10:47;;;;;;;2.72;1.17;;;19.10;71.20;;;;;;4109925;28;20041;-57
2022/05/21 03:12:55;;;;;;;2.92;1.00;;;19.10;71.10;;;;;;4112090;28;20152;-61
2022/05/21 03:14:57;;;;;;;2.25;0.95;;;19.10;71.10;;;;;;4116259;28;20434;-58
2022/05/21 03:16:59;;;;;;;2.28;1.02;;;19.10;71.00;;;;;;4110418;28;20202;-55
2022/05/21 03:19:02;;;;;;;2.58;1.13;;;19.10;71.00;;;;;;4110625;28;20045;-56
2022/05/21 03:21:04;;;;;;;2.08;0.80;;;19.10;70.90;;;;;;4116654;28;20057;-58
2022/05/21 03:23:07;;;;;;;2.33;1.10;;;19.10;71.00;;;;;;4115577;28;20046;-57
2022/05/21 03:25:10;;;;;;;2.45;1.08;;;19.10;70.90;;;;;;4143312;28;20406;-56
2022/05/21 03:27:12;;;;;;;1.70;0.90;;;19.10;70.90;;;;;;4112785;28;20052;-58
2022/05/21 03:29:14;;;;;;;1.75;0.50;;;19.10;70.80;;;;;;4118759;28;20107;-58
2022/05/21 03:31:17;;;;;;;1.60;0.77;;;19.10;70.70;;;;;;4110098;28;20065;-58
2022/05/21 03:33:19;;;;;;;2.65;0.73;;;19.10;70.70;;;;;;4110683;28;20508;-57
2022/05/21 03:35:22;;;;;;;0.65;0.50;;;19.10;70.60;;;;;;4117349;28;20061;-58
2022/05/21 03:37:24;;;;;;;2.45;0.80;;;19.10;70.60;;;;;;4116160;28;20053;-56
2022/05/21 03:39:28;;;;;;;1.48;0.60;;;19.10;70.60;;;;;;4111485;28;20140;-58
2022/05/21 03:41:31;;;;;;;1.40;0.80;;;19.10;70.50;;;;;;4106741;28;20072;-58
2022/05/21 03:43:33;;;;;;;2.05;0.77;;;19.20;70.60;;;;;;4119254;28;20058;-58
2022/05/21 03:45:35;;;;;;;0.68;0.50;;;19.10;70.50;;;;;;4110510;28;20276;-58
2022/05/21 03:47:38;;;;;;;2.15;1.00;;;19.20;70.50;;;;;;4111053;28;20355;-58
2022/05/21 03:49:40;;;;;;;1.17;0.70;;;19.20;71.20;;;;;;4116526;28;20549;-57
2022/05/21 03:51:43;;;;;;;1.95;0.98;;;19.20;70.60;;;;;;4111723;28;21206;-59
2022/05/21 03:53:45;;;;;;;1.38;0.90;;;19.20;70.60;;;;;;4110088;28;20419;-58
2022/05/21 03:55:48;;;;;;;2.30;0.80;;;19.20;70.60;;;;;;4110308;28;20172;-58
2022/05/21 03:57:50;;;;;;;1.25;0.60;;;19.20;70.60;;;;;;4116792;28;20419;-57
2022/05/21 03:59:52;;;;;;;0.93;0.55;;;19.20;70.50;;;;;;4108593;28;20132;-58
2022/05/21 04:01:55;;;;;;;0.95;0.70;;;19.20;70.60;;;;;;4110432;28;20134;-58
2022/05/21 04:03:57;;;;;;;2.03;0.70;;;19.20;70.50;;;;;;4119797;28;20054;-58
2022/05/21 04:05:59;;;;;;;2.00;0.70;;;19.10;70.50;;;;;;4109787;28;20059;-58
2022/05/21 04:08:02;;;;;;;1.13;0.60;;;19.20;70.60;;;;;;4110530;28;20050;-58
2022/05/21 04:10:05;;;;;;;0.43;0.38;;;19.20;70.60;;;;;;4115022;28;21013;-59
2022/05/21 04:12:08;;;;;;;0.80;0.57;;;19.20;70.70;;;;;;4116774;28;21495;-58
2022/05/21 04:14:12;;;;;;;1.35;0.50;;;19.10;70.60;;;;;;4110839;28;20049;-58
2022/05/21 04:16:15;;;;;;;1.77;0.63;;;19.20;70.60;;;;;;4110720;28;20119;-57
2022/05/21 04:18:19;;;;;;;1.85;0.70;;;19.10;70.60;;;;;;4119153;28;20439;-58
2022/05/21 04:20:23;;;;;;;1.30;0.63;;;19.10;70.60;;;;;;4115826;28;20061;-59
2022/05/21 04:22:25;;;;;;;1.20;0.68;;;19.10;70.60;;;;;;4111601;28;20119;-58
2022/05/21 04:24:27;;;;;;;1.20;0.63;;;19.10;70.70;;;;;;4113504;28;20053;-58
2022/05/21 04:26:29;;;;;;;1.95;0.50;;;19.10;70.70;;;;;;4116461;28;20803;-58
2022/05/21 04:28:31;;;;;;;0.98;0.50;;;19.10;70.70;;;;;;4113309;28;20163;-56
2022/05/21 04:30:35;;;;;;;1.20;0.73;;;19.10;70.70;;;;;;4109305;28;20045;-58
2022/05/21 04:32:37;;;;;;;1.05;0.50;;;19.10;70.70;;;;;;4111993;28;20053;-59
2022/05/21 04:34:39;;;;;;;1.05;0.50;;;19.10;70.70;;;;;;4109138;28;20928;-58
2022/05/21 04:36:42;;;;;;;1.23;0.80;;;19.10;70.70;;;;;;4106586;28;21010;-56
2022/05/21 04:38:44;;;;;;;0.93;0.50;;;19.10;70.70;;;;;;4142931;28;20169;-56
2022/05/21 04:40:47;;;;;;;3.00;0.98;;;19.10;70.70;;;;;;4113653;28;20056;-58
2022/05/21 04:42:50;;;;;;;1.38;0.57;;;19.10;70.90;;;;;;4106089;28;20057;-58
2022/05/21 04:44:52;;;;;;;1.80;0.55;;;19.10;70.70;;;;;;4106834;28;20119;-58
2022/05/21 04:46:54;;;;;;;0.93;0.57;;;19.10;70.70;;;;;;4115150;28;20068;-56
2022/05/21 04:48:56;;;;;;;0.75;0.30;;;19.10;70.80;;;;;;4107713;28;20053;-58
2022/05/21 04:51:04;;;;;;;0.50;0.40;;;19.10;70.70;;;;;;4107929;28;20684;-58
2022/05/21 04:53:06;;;;;;;1.23;0.63;;;19.10;70.70;;;;;;4108052;28;20182;-58
2022/05/21 04:55:10;;;;;;;0.75;0.50;;;19.10;70.70;;;;;;4114814;28;20167;-57
2022/05/21 04:57:12;;;;;;;1.30;0.50;;;19.10;70.80;;;;;;4104760;28;21096;-58
2022/05/21 04:59:14;;;;;;;1.77;0.43;;;19.10;70.80;;;;;;4099187;28;20119;-58
2022/05/21 05:01:16;;;;;;;0.95;0.45;;;19.10;71.50;;;;;;4109137;28;20498;-58
2022/05/21 05:03:19;;;;;;;0.30;0.30;;;19.10;70.80;;;;;;4111886;28;21727;-57
2022/05/21 05:05:23;;;;;;;0.82;0.45;;;19.10;70.80;;;;;;4106651;28;20501;-57
2022/05/21 05:07:25;;;;;;;0.73;0.65;;;19.10;70.80;;;;;;4106868;28;20465;-57
2022/05/21 05:09:27;;;;;;;0.40;0.40;;;19.10;70.70;;;;;;4118014;28;20599;-57
2022/05/21 05:11:29;;;;;;;0.93;0.47;;;19.10;70.80;;;;;;4108681;28;20120;-57
2022/05/21 05:13:31;;;;;;;1.90;0.60;;;19.10;70.80;;;;;;4109681;28;20428;-58
2022/05/21 05:15:34;;;;;;;1.27;0.90;;;19.10;70.80;;;;;;4114746;28;20045;-58
2022/05/21 05:17:36;;;;;;;1.02;0.55;;;19.10;70.80;;;;;;4114219;28;21811;-57
2022/05/21 05:19:39;;;;;;;0.88;0.55;;;19.10;70.90;;;;;;4109592;28;20061;-57
2022/05/21 05:21:42;;;;;;;0.40;0.40;;;19.10;70.90;;;;;;4110734;28;20053;-58
2022/05/21 05:23:44;;;;;;;2.05;0.80;;;19.10;70.90;;;;;;4119153;28;20784;-58
2022/05/21 05:25:46;;;;;;;0.85;0.55;;;19.10;70.90;;;;;;4114863;28;20148;-57
2022/05/21 05:27:50;;;;;;;0.60;0.30;;;19.10;70.90;;;;;;4125998;28;20054;-58
2022/05/21 05:29:52;;;;;;;3.20;0.65;;;19.10;70.90;;;;;;4153146;28;20053;-58
2022/05/21 05:31:54;;;;;;;1.08;0.63;;;19.10;70.90;;;;;;4158330;28;20073;-56
2022/05/21 05:33:57;;;;;;;0.98;0.47;;;19.10;70.90;;;;;;4112764;28;20195;-57
2022/05/21 05:35:59;;;;;;;1.08;0.47;;;19.10;70.90;;;;;;4113219;28;20049;-56
2022/05/21 05:38:06;;;;;;;0.50;0.50;;;19.10;71.00;;;;;;4117267;28;20053;-57
2022/05/21 05:40:13;;;;;;;0.60;0.50;;;19.10;70.90;;;;;;4112298;28;20150;-57
2022/05/21 05:42:17;;;;;;;0.98;0.60;;;19.10;70.90;;;;;;4108569;28;20449;-57
2022/05/21 05:44:20;;;;;;;1.17;0.40;;;19.10;70.90;;;;;;4110228;28;20053;-57
2022/05/21 05:46:26;;;;;;;1.02;0.60;;;19.10;70.90;;;;;;4118890;28;20571;-57
2022/05/21 05:48:29;;;;;;;0.57;0.57;;;19.10;70.90;;;;;;4115762;28;20049;-58
2022/05/21 05:50:31;;;;;;;0.77;0.30;;;19.10;70.90;;;;;;4110790;28;20082;-58
2022/05/21 05:52:33;;;;;;;0.73;0.47;;;19.10;71.00;;;;;;4111273;28;20107;-57
2022/05/21 05:54:37;;;;;;;0.85;0.52;;;19.10;70.90;;;;;;4118484;28;20641;-58
2022/05/21 05:56:42;;;;;;;0.50;0.50;;;19.10;71.00;;;;;;4111481;28;21002;-58
2022/05/21 06:01:07;;;;;;;0.25;0.25;;;19.10;71.00;;;;;;4113818;28;20906;-57
2022/05/21 06:03:09;;;;;;;0.90;0.50;;;19.10;71.50;;;;;;4110150;28;20330;-58
2022/05/21 06:05:15;;;;;;;0.57;0.57;;;19.00;71.00;;;;;;4112667;28;20057;-58
2022/05/21 06:07:17;;;;;;;0.75;0.40;;;19.00;71.00;;;;;;4118562;28;21004;-58
2022/05/21 06:09:19;;;;;;;1.08;0.50;;;19.00;71.10;;;;;;4112973;28;20056;-58
2022/05/21 06:11:21;;;;;;;0.93;0.40;;;19.00;71.10;;;;;;4109615;28;20057;-58
2022/05/21 06:13:23;;;;;;;0.52;0.30;;;19.00;71.10;;;;;;4114413;28;20052;-57
2022/05/21 06:15:26;;;;;;;0.82;0.60;;;19.10;71.20;;;;;;4117604;28;20053;-57
2022/05/21 06:17:28;;;;;;;0.35;0.28;;;19.00;71.10;;;;;;4111683;28;20049;-58
2022/05/21 06:19:30;;;;;;;0.32;0.32;;;19.00;71.20;;;;;;4124126;28;20138;-58
2022/05/21 06:21:32;;;;;;;0.32;0.30;;;19.00;71.20;;;;;;4118530;28;20045;-58
2022/05/21 06:23:35;;;;;;;0.52;0.43;;;19.00;71.20;;;;;;4113138;28;20394;-58
2022/05/21 06:25:37;;;;;;;1.00;0.52;;;19.00;71.20;;;;;;4113175;28;20071;-58
2022/05/21 06:27:39;;;;;;;1.13;0.57;;;19.00;71.20;;;;;;4120745;28;20057;-59
2022/05/21 06:29:42;;;;;;;0.63;0.35;;;19.00;71.30;;;;;;4116088;28;20546;-58
2022/05/21 06:31:44;;;;;;;1.15;0.50;;;19.00;71.30;;;;;;4113357;28;20547;-58
2022/05/21 06:33:46;;;;;;;0.80;0.60;;;19.00;71.30;;;;;;4115909;28;20053;-58
2022/05/21 06:36:00;;;;;;;0.60;0.50;;;19.00;71.30;;;;;;4122246;28;20061;-59
2022/05/21 06:38:03;;;;;;;;;;;19.00;71.30;;;;;;4121880;28;20060;-58
2022/05/21 06:40:07;;;;;;;0.55;0.50;;;19.00;71.40;;;;;;4112904;28;19929;-59
2022/05/21 06:42:11;;;;;;;0.80;0.38;;;19.00;71.40;;;;;;4114338;28;20046;-59
2022/05/21 06:44:13;;;;;;;0.85;0.47;;;19.00;71.40;;;;;;4118193;28;20460;-58
2022/05/21 06:46:15;;;;;;;0.77;0.43;;;19.00;71.40;;;;;;4119182;28;20146;-58
2022/05/21 06:48:17;;;;;;;1.65;0.52;;;19.00;71.50;;;;;;4113527;28;20403;-58
2022/05/21 06:50:20;;;;;;;0.68;0.40;;;19.00;71.40;;;;;;4113454;28;20828;-58
2022/05/21 06:52:26;;;;;;;0.63;0.40;;;18.90;71.40;;;;;;4120864;28;20053;-58
2022/05/21 06:54:28;;;;;;;0.68;0.50;;;18.90;71.40;;;;;;4113749;28;20659;-58
2022/05/21 06:56:30;;;;;;;0.82;0.50;;;19.00;71.50;;;;;;4112769;28;20045;-59
2022/05/21 06:58:32;;;;;;;0.85;0.47;;;18.90;71.40;;;;;;4118198;28;20049;-59
2022/05/21 07:00:35;;;;;;;0.38;0.30;;;18.90;71.50;;;;;;4116002;28;20487;-57
2022/05/21 07:02:37;;;;;;;0.43;0.40;;;19.00;71.50;;;;;;4112247;28;20080;-58
2022/05/21 07:09:21;;;;;;;0.35;0.35;;;18.90;71.50;;;;;;4111689;28;21082;-58
2022/05/21 07:11:23;;;;;;;0.50;0.50;;;18.90;71.50;;;;;;4109045;28;20061;-58
2022/05/21 07:13:28;;;;;;;0.40;0.40;;;18.90;71.50;;;;;;4111058;28;20049;-57
2022/05/21 07:15:30;;;;;;;1.13;0.60;;;18.90;71.50;;;;;;4117067;28;20063;-57
2022/05/21 07:17:32;;;;;;;0.60;0.40;;;18.90;71.50;;;;;;4112101;28;20041;-58
2022/05/21 07:19:36;;;;;;;0.63;0.40;;;18.90;71.60;;;;;;4111365;28;20061;-59
2022/05/21 07:21:38;;;;;;;1.13;0.60;;;18.90;71.40;;;;;;4112973;28;20185;-58
2022/05/21 07:23:41;;;;;;;1.03;0.57;;;18.90;71.70;;;;;;4114898;28;20390;-57
2022/05/21 07:25:44;;;;;;;1.33;0.50;;;18.90;71.70;;;;;;4111088;28;20369;-58
2022/05/21 07:27:46;;;;;;;1.33;0.63;;;18.90;71.70;;;;;;4111848;28;20171;-58
2022/05/21 07:29:48;;;;;;;1.00;0.50;;;18.90;71.70;;;;;;4115157;28;20042;-58
2022/05/21 07:31:50;;;;;;;0.52;0.40;;;18.90;71.80;;;;;;4110410;28;20528;-57
2022/05/21 07:33:52;;;;;;;0.95;0.60;;;18.90;71.80;;;;;;4109803;28;21079;-58
2022/05/21 07:35:54;;;;;;;0.47;0.37;;;18.90;71.80;;;;;;4118544;28;20441;-58
2022/05/21 07:37:57;;;;;;;2.63;0.88;;;18.90;71.80;;;;;;4113523;28;20306;-58
2022/05/21 07:39:59;;;;;;;0.63;0.50;;;18.90;71.80;;;;;;4111997;28;20056;-57
2022/05/21 07:42:01;;;;;;;1.17;0.60;;;18.90;71.90;;;;;;4116455;28;20050;-58
2022/05/21 07:44:03;;;;;;;0.95;0.60;;;18.90;71.90;;;;;;4115577;28;20144;-58
2022/05/21 07:46:07;;;;;;;1.08;0.55;;;18.90;71.90;;;;;;4109411;28;20057;-59
2022/05/21 07:48:12;;;;;;;1.15;0.47;;;18.90;72.00;;;;;;4112278;28;20621;-58
2022/05/21 07:50:15;;;;;;;0.55;0.50;;;18.90;72.00;;;;;;4117066;28;20511;-58
2022/05/21 07:52:17;;;;;;;0.50;0.50;;;18.90;72.10;;;;;;4109522;28;20064;-57
2022/05/21 07:54:21;;;;;;;1.10;0.50;;;18.90;72.00;;;;;;4106474;28;20488;-58
2022/05/21 07:56:23;;;;;;;0.45;0.45;;;18.90;72.10;;;;;;4108823;28;20673;-58
2022/05/21 07:58:28;;;;;;;0.77;0.60;;;18.90;72.20;;;;;;4116367;28;20565;-58
2022/05/21 08:00:30;;;;;;;0.43;0.40;;;18.90;72.30;;;;;;4108231;28;20954;-58
2022/05/21 08:02:32;;;;;;;1.45;0.60;;;18.90;72.30;;;;;;4108036;28;20128;-58
2022/05/21 08:04:36;;;;;;;1.20;0.70;;;18.80;72.20;;;;;;4113241;28;20374;-58
2022/05/21 08:06:38;;;;;;;0.73;0.60;;;18.90;72.40;;;;;;4114305;28;22031;-58
2022/05/21 08:08:41;;;;;;;1.70;0.75;;;18.80;72.40;;;;;;4107929;28;20057;-58
2022/05/21 08:10:45;;;;;;;0.75;0.60;;;18.90;72.40;;;;;;4109878;28;20052;-59
2022/05/21 08:12:47;;;;;;;1.20;0.60;;;18.80;72.40;;;;;;4116482;28;20065;-56
2022/05/21 08:14:49;;;;;;;0.63;0.63;;;18.80;72.40;;;;;;4109744;28;20778;-57
2022/05/21 08:16:51;;;;;;;1.20;0.70;;;18.80;72.50;;;;;;4106995;28;20056;-57
2022/05/21 08:18:54;;;;;;;1.35;0.60;;;18.80;72.50;;;;;;4114376;28;20060;-58
2022/05/21 08:20:56;;;;;;;0.82;0.50;;;18.80;72.60;;;;;;4112785;28;20469;-58
2022/05/21 08:27:39;;;;;;;0.95;0.63;;;18.80;72.60;;;;;;4115373;28;20147;-58
2022/05/21 08:29:41;;;;;;;0.80;0.52;;;18.80;72.60;;;;;;4102047;28;20419;-58
2022/05/21 08:31:43;;;;;;;0.55;0.50;;;18.90;72.70;;;;;;4106814;28;20111;-58
2022/05/21 08:33:45;;;;;;;1.40;0.90;;;18.80;72.60;;;;;;4111515;28;20553;-57
2022/05/21 08:35:47;;;;;;;1.85;0.95;;;18.80;73.10;;;;;;4111064;28;21828;-58
2022/05/21 08:37:49;;;;;;;1.23;0.70;;;18.80;72.60;;;;;;4105615;28;20346;-58
2022/05/21 08:39:51;;;;;;;0.85;0.52;;;18.80;72.50;;;;;;4106791;28;20057;-58
2022/05/21 08:42:04;;;;;;;1.08;0.65;;;18.80;72.70;;;;;;4113238;28;20606;-58
2022/05/21 08:44:33;;;;;;;1.20;0.65;;;18.80;72.60;;;;;;4112795;28;20484;-58
2022/05/21 08:47:01;;;;;;;0.98;0.77;;;18.80;72.70;;;;;;4107097;28;20452;-58
2022/05/21 08:49:07;;;;;;;1.25;0.70;;;18.80;72.70;;;;;;4113089;28;20049;-58
2022/05/21 08:51:19;;;;;;;2.85;0.85;;;18.80;72.60;;;;;;4107488;28;21955;-58
2022/05/21 08:53:27;;;;;;;1.77;1.08;;;18.80;72.70;;;;;;4106240;28;21236;-59
2022/05/21 08:55:36;;;;;;;1.33;0.82;;;18.80;72.70;;;;;;4109215;28;20096;-58
2022/05/21 08:57:57;;;;;;;2.72;1.10;;;18.80;72.70;;;;;;4106575;28;20356;-58
2022/05/21 09:00:10;;;;;;;1.45;0.80;;;18.80;72.70;;;;;;4103814;28;21817;-58
2022/05/21 09:02:18;;;;;;;0.83;0.80;;;18.80;72.70;;;;;;4111217;28;20057;-58
2022/05/21 09:04:23;;;;;;;2.60;1.00;;;18.80;72.70;;;;;;4106593;28;20684;-58
2022/05/21 09:06:37;;;;;;;1.35;1.00;;;18.80;72.70;;;;;;4106596;28;20060;-59
2022/05/21 09:08:42;;;;;;;2.13;1.15;;;18.80;72.70;;;;;;4105971;28;20213;-58
2022/05/21 09:11:06;;;;;;;2.42;1.17;;;18.80;72.70;;;;;;4105036;28;20049;-59
2022/05/21 09:13:20;;;;;;;1.63;1.25;;;18.80;73.30;;;;;;4106756;28;20045;-59
2022/05/21 09:17:43;;;;;;;2.85;1.70;;;18.80;72.70;;;;;;4115089;28;20000;-59
2022/05/21 09:19:55;;;;;;;2.53;1.40;;;18.70;72.70;;;;;;4105916;28;20163;-58
2022/05/21 09:22:17;;;;;;;2.38;1.40;;;18.80;72.70;;;;;;4107929;28;20143;-59
2022/05/21 09:24:39;;;;;;;2.15;1.13;;;18.80;72.70;;;;;;4115049;28;20049;-58
2022/05/21 09:26:50;;;;;;;2.58;1.20;;;18.70;72.70;;;;;;4106717;28;20060;-57
2022/05/21 09:29:13;;;;;;;2.00;1.30;;;18.70;72.70;;;;;;4107061;28;20211;-58
2022/05/21 09:31:23;;;;;;;2.25;1.65;;;18.80;72.80;;;;;;4102895;28;20591;-59
2022/05/21 09:33:37;;;;;;;2.13;1.33;;;18.70;72.60;;;;;;4105133;28;20358;-58
2022/05/21 09:35:59;;;;;;;2.53;1.50;;;18.70;72.70;;;;;;4105394;28;20053;-57
2022/05/21 09:38:14;;;;;;;2.42;1.55;;;18.70;72.70;;;;;;4127226;28;20044;-59
2022/05/21 09:40:36;;;;;;;2.13;1.35;;;18.80;72.80;;;;;;4113476;28;20095;-58
2022/05/21 09:47:26;;;;;;;2.47;1.65;;;18.70;72.70;;;;;;4108257;28;21241;-59
2022/05/21 09:49:29;;;;;;;2.17;1.50;;;18.70;72.70;;;;;;4105636;28;20061;-58
2022/05/21 09:51:33;;;;;;;2.38;1.50;;;18.70;72.80;;;;;;4110593;28;20054;-58
2022/05/21 09:53:37;;;;;;;3.17;1.90;;;18.70;72.80;;;;;;4109710;28;20054;-58
2022/05/21 09:55:39;;;;;;;1.52;1.20;;;18.70;72.80;;;;;;4114472;28;20572;-58
2022/05/21 09:57:45;;;;;;;2.58;1.63;;;18.70;72.80;;;;;;4107426;28;20045;-58
2022/05/21 10:00:24;;;;;;;1.73;1.30;;;18.70;72.70;;;;;;4105339;28;20053;-58
2022/05/21 10:02:43;;;;;;;2.03;1.65;;;18.70;72.70;;;;;;4110857;28;20374;-58
2022/05/21 10:04:52;;;;;;;2.03;1.25;;;18.70;72.70;;;;;;4110396;28;20501;-59
2022/05/21 10:07:03;;;;;;;2.33;1.42;;;18.70;72.70;;;;;;4115788;28;20662;-58
2022/05/21 10:12:13;;;;;;;1.30;1.10;;;18.70;72.80;;;;;;4149182;28;20057;-59
2022/05/21 10:14:23;;;;;;;1.75;1.30;;;18.70;72.70;;;;;;4143518;28;20041;-60
2022/05/21 10:16:59;;;;;;;2.63;1.40;;;18.70;72.80;;;;;;4148919;28;20045;-57
2022/05/21 10:19:45;;;;;;;2.33;1.42;;;18.70;72.70;;;;;;4155777;28;20103;-58
2022/05/21 10:22:05;;;;;;;2.35;1.50;;;18.70;72.70;;;;;;4107426;28;20058;-57
2022/05/21 10:24:41;;;;;;;2.15;1.30;;;18.70;72.80;;;;;;4111250;28;20061;-58
2022/05/21 10:27:01;;;;;;;1.88;1.10;;;18.70;72.70;;;;;;4109110;28;20129;-58
2022/05/21 10:29:04;;;;;;;3.03;1.63;;;18.70;72.70;;;;;;4111106;28;20041;-58
2022/05/21 10:31:29;;;;;;;2.67;1.83;;;18.70;72.70;;;;;;4102672;28;20049;-59
2022/05/21 10:34:03;;;;;;;2.80;1.60;;;18.70;72.70;;;;;;4108927;28;20440;-58
2022/05/21 10:36:08;;;;;;;2.78;1.45;;;18.70;72.70;;;;;;4107839;28;20592;-58
2022/05/21 10:38:46;;;;;;;2.42;1.55;;;18.70;72.70;;;;;;4114335;28;20474;-59
2022/05/21 10:41:33;;;;;;;2.45;1.52;;;18.70;72.70;;;;;;4115806;28;20042;-59
2022/05/21 10:43:53;;;;;;;2.45;1.30;;;18.70;72.70;;;;;;4111756;28;20522;-58
2022/05/21 10:46:25;;;;;;;1.95;1.40;;;18.70;72.70;;;;;;4109998;28;20053;-59
2022/05/21 10:48:38;;;;;;;1.85;1.45;;;18.70;72.70;;;;;;4112172;28;21209;-58
2022/05/21 10:50:52;;;;;;;1.92;1.25;;;18.70;72.70;;;;;;4112850;28;20171;-58
2022/05/21 10:52:54;;;;;;;2.47;1.48;;;18.70;72.70;;;;;;4115925;28;20889;-58
2022/05/21 10:55:21;;;;;;;2.28;1.30;;;18.70;72.70;;;;;;4107836;28;20052;-59
2022/05/21 10:57:53;;;;;;;1.60;1.33;;;18.70;72.60;;;;;;4114982;28;20103;-58
2022/05/21 11:00:06;;;;;;;1.60;1.20;;;18.70;72.70;;;;;;4108195;28;20046;-59
2022/05/21 11:02:40;;;;;;;2.72;1.60;;;18.70;72.70;;;;;;4104683;28;21439;-58
2022/05/21 11:04:57;;;;;;;2.05;1.42;;;18.70;72.70;;;;;;4107431;28;20054;-57
2022/05/21 11:07:07;;;;;;;1.80;1.20;;;18.70;72.70;;;;;;4109182;28;20045;-59
2022/05/21 11:09:21;;;;;;;2.30;1.40;;;18.70;72.70;;;;;;4107637;28;20084;-59
2022/05/21 11:11:53;;;;;;;2.50;1.33;;;18.70;72.70;;;;;;4110815;28;20085;-59
2022/05/21 11:14:12;;;;;;;2.10;1.40;;;18.70;72.70;;;;;;4117585;28;20191;-59
2022/05/21 11:16:24;;;;;;;1.67;1.20;;;18.70;72.80;;;;;;4111962;28;20409;-58
2022/05/21 11:18:36;;;;;;;2.35;1.50;;;18.60;72.70;;;;;;4111840;28;20122;-59
2022/05/21 11:20:52;;;;;;;3.72;1.50;;;18.60;72.70;;;;;;4109915;28;20781;-59
2022/05/21 11:23:09;;;;;;;1.40;1.20;;;18.70;72.70;;;;;;4110340;28;20344;-58
2022/05/21 11:25:43;;;;;;;2.47;1.60;;;18.60;72.70;;;;;;4111088;28;20045;-59
2022/05/21 11:28:04;;;;;;;2.55;1.58;;;18.60;72.70;;;;;;4098153;28;20107;-59